Time;durP1;ratioP1;P1;durP2;ratioP2;P2;SDS_P1;SDS_P2;PMS_P1;PMS_P2;Temp;Humidity;BMP_temperature;BMP_pressure;BME280_temperature;BME280_humidity;BME280_pressure;Samples;Min_cycle;Max_cycle;Signal;HPM_P1;HPM_P2
2022/08/07 00:00:21;;;;;;;3.00;0.90;;;;;;;26.39;38.39;100796.31;5069528;28;20411;-61
2022/08/07 00:02:47;;;;;;;1.80;1.00;;;;;;;26.39;38.77;100802.09;5070636;28;20167;-61
2022/08/07 00:05:12;;;;;;;1.63;0.80;;;;;;;26.38;38.23;100804.16;5070730;28;20183;-61
2022/08/07 00:07:38;;;;;;;4.80;1.17;;;;;;;26.39;38.06;100802.91;5070155;28;20528;-61
2022/08/07 00:10:04;;;;;;;2.67;1.00;;;;;;;26.38;38.51;100801.25;5084677;28;20174;-61
2022/08/07 00:12:30;;;;;;;2.00;1.00;;;;;;;26.38;38.51;100797.53;5092212;28;20591;-61
2022/08/07 00:14:56;;;;;;;2.30;0.80;;;;;;;26.39;38.39;100800.00;5075120;28;20512;-61
2022/08/07 00:17:21;;;;;;;4.20;1.20;;;;;;;26.37;38.23;100796.72;5074135;28;20424;-61
2022/08/07 00:19:47;;;;;;;2.00;0.97;;;;;;;26.38;38.65;100797.53;5073639;28;20256;-61
2022/08/07 00:22:12;;;;;;;4.77;1.00;;;;;;;26.35;38.97;100793.41;5073154;28;20728;-61
2022/08/07 00:24:37;;;;;;;3.00;1.03;;;;;;;26.36;38.26;100789.28;5073038;28;20197;-61
2022/08/07 00:27:03;;;;;;;4.10;1.10;;;;;;;26.35;38.51;100787.63;5073047;28;20714;-61
2022/08/07 00:29:28;;;;;;;4.40;1.03;;;;;;;26.36;38.58;100785.56;5072981;28;20171;-61
2022/08/07 00:31:55;;;;;;;5.20;1.00;;;;;;;26.35;38.69;100781.81;5073428;28;20244;-61
2022/08/07 00:34:21;;;;;;;2.33;1.00;;;;;;;26.36;38.65;100779.75;5073510;28;20179;-61
2022/08/07 00:36:46;;;;;;;3.20;1.10;;;;;;;26.35;38.04;100775.22;5073197;28;20421;-61
2022/08/07 00:39:12;;;;;;;2.23;0.90;;;;;;;26.35;38.71;100778.94;5072800;28;20334;-61
2022/08/07 00:41:38;;;;;;;2.03;1.00;;;;;;;26.35;38.26;100766.53;5072864;28;20167;-61
2022/08/07 00:44:03;;;;;;;2.07;0.90;;;;;;;26.34;38.89;100768.59;5071109;28;20225;-61
2022/08/07 00:46:30;;;;;;;2.37;0.83;;;;;;;26.35;38.62;100778.13;5085056;28;20864;-61
2022/08/07 00:49:00;;;;;;;2.80;0.83;;;;;;;26.34;38.58;100779.38;5093823;28;20181;-61
2022/08/07 00:51:26;;;;;;;2.20;1.00;;;;;;;26.33;37.89;100775.66;5094098;28;20756;-61
2022/08/07 00:53:51;;;;;;;3.17;0.90;;;;;;;26.33;38.33;100771.91;5094032;28;20417;-61
2022/08/07 00:56:17;;;;;;;2.00;0.90;;;;;;;26.33;38.37;100760.31;5094096;28;20968;-61
2022/08/07 00:58:43;;;;;;;2.53;1.10;;;;;;;26.32;38.19;100762.41;5093815;28;20183;-61
2022/08/07 01:01:08;;;;;;;1.83;0.73;;;;;;;26.32;38.40;100768.22;5094035;28;20200;-61
2022/08/07 01:03:34;;;;;;;2.13;0.97;;;;;;;26.32;38.43;100773.16;5093362;28;20179;-61
2022/08/07 01:06:00;;;;;;;2.77;1.10;;;;;;;26.31;38.18;100766.56;5093941;28;20199;-61
2022/08/07 01:08:25;;;;;;;3.00;1.00;;;;;;;26.31;38.47;100772.34;5093556;28;20222;-61
2022/08/07 01:10:51;;;;;;;2.60;0.83;;;;;;;26.32;38.65;100770.28;5093771;28;20260;-61
2022/08/07 01:13:16;;;;;;;3.50;1.10;;;;;;;26.31;38.57;100759.94;5093696;28;20174;-61
2022/08/07 01:15:41;;;;;;;4.03;0.90;;;;;;;26.30;37.78;100770.69;5092482;28;20174;-61
2022/08/07 01:18:07;;;;;;;1.63;0.93;;;;;;;26.30;38.45;100772.78;5092164;28;20186;-62
2022/08/07 01:20:39;;;;;;;1.80;0.97;;;;;;;26.29;38.72;100766.16;5090843;28;20202;-61
2022/08/07 01:23:04;;;;;;;2.43;0.90;;;;;;;26.30;38.45;100758.31;5092129;28;20177;-61
2022/08/07 01:25:30;;;;;;;1.50;0.70;;;;;;;26.29;38.41;100765.34;5093670;28;20412;-61
2022/08/07 01:27:56;;;;;;;2.63;0.93;;;;;;;26.28;38.49;100767.41;5093314;28;20629;-61
2022/08/07 01:30:23;;;;;;;2.37;1.10;;;;;;;26.28;38.37;100764.50;5093551;28;20171;-61
2022/08/07 01:32:48;;;;;;;2.20;0.90;;;;;;;26.28;38.09;100757.88;5092075;28;20635;-61
2022/08/07 01:35:14;;;;;;;2.00;0.87;;;;;;;26.28;37.98;100770.28;5082770;28;20483;-61
2022/08/07 01:37:42;;;;;;;2.43;1.17;;;;;;;26.27;38.01;100771.56;5071201;28;20552;-61
2022/08/07 01:40:08;;;;;;;2.80;0.90;;;;;;;26.27;38.24;100767.81;5071183;28;20202;-61
2022/08/07 01:42:34;;;;;;;2.17;0.77;;;;;;;26.25;38.69;100768.22;5070785;28;20425;-61
2022/08/07 01:44:59;;;;;;;3.97;1.03;;;;;;;26.26;38.26;100769.91;5070864;28;20213;-61
2022/08/07 01:47:24;;;;;;;2.83;1.27;;;;;;;26.25;38.52;100765.34;5090763;28;20174;-61
2022/08/07 01:49:50;;;;;;;2.10;1.00;;;;;;;26.25;38.22;100767.44;5092169;28;20173;-61
2022/08/07 01:52:15;;;;;;;1.87;0.80;;;;;;;26.24;38.38;100766.59;5091972;28;20596;-61
2022/08/07 01:54:41;;;;;;;2.77;0.80;;;;;;;26.24;38.44;100760.81;5073739;28;20174;-61
2022/08/07 01:57:20;;;;;;;2.10;1.00;;;;;;;26.24;38.60;100765.78;5091270;28;20189;-61
2022/08/07 01:59:50;;;;;;;2.43;0.90;;;;;;;26.24;38.04;100762.88;5075880;28;20195;-61
2022/08/07 02:02:41;;;;;;;1.90;1.00;;;;;;;26.23;38.38;100755.44;5074758;28;20976;-61
2022/08/07 02:05:08;;;;;;;2.93;1.10;;;;;;;26.22;38.34;100760.41;5065002;28;20535;-61
2022/08/07 02:07:52;;;;;;;2.40;0.90;;;;;;;26.22;38.35;100754.63;5072578;28;20480;-61
2022/08/07 02:10:23;;;;;;;1.77;0.93;;;;;;;26.21;38.45;100755.88;5087328;28;20461;-61
2022/08/07 02:12:48;;;;;;;2.67;0.80;;;;;;;26.21;38.60;100755.03;5074021;28;20416;-61
2022/08/07 02:15:13;;;;;;;2.30;1.10;;;;;;;26.21;38.40;100747.19;5075404;28;20421;-61
2022/08/07 02:17:40;;;;;;;2.00;0.90;;;;;;;26.20;38.20;100753.41;5074687;28;20181;-61
2022/08/07 02:20:06;;;;;;;1.60;0.70;;;;;;;26.20;38.54;100753.41;5092004;28;20199;-61
2022/08/07 02:22:32;;;;;;;4.13;1.10;;;;;;;26.21;37.77;100750.09;5091576;28;20542;-61
2022/08/07 02:24:57;;;;;;;2.03;0.83;;;;;;;26.19;37.96;100740.97;5090323;28;20417;-61
2022/08/07 02:27:23;;;;;;;3.57;1.00;;;;;;;26.20;38.24;100741.81;5090196;28;20174;-61
2022/08/07 02:29:49;;;;;;;2.50;0.80;;;;;;;26.19;38.65;100745.97;5090251;28;20244;-61
2022/08/07 02:32:15;;;;;;;3.10;1.07;;;;;;;26.17;38.14;100731.91;5091202;28;20413;-61
2022/08/07 02:34:40;;;;;;;2.30;1.00;;;;;;;26.17;38.20;100731.91;5090887;28;20559;-61
2022/08/07 02:37:07;;;;;;;3.00;0.80;;;;;;;26.18;38.21;100741.41;5073843;28;20417;-61
2022/08/07 02:39:34;;;;;;;1.83;0.80;;;;;;;26.17;38.46;100734.81;5092050;28;20198;-61
2022/08/07 02:41:59;;;;;;;1.93;1.10;;;;;;;26.16;38.50;100733.16;5090871;28;20907;-61
2022/08/07 02:44:25;;;;;;;5.80;1.23;;;;;;;26.16;38.42;100729.44;5091860;28;20423;-61
2022/08/07 02:46:52;;;;;;;3.00;0.90;;;;;;;26.16;37.95;100730.28;5090656;28;20218;-61
2022/08/07 02:49:18;;;;;;;2.60;1.00;;;;;;;26.16;38.05;100717.84;5090609;28;20681;-61
2022/08/07 02:51:43;;;;;;;2.30;0.83;;;;;;;26.16;38.29;100717.84;5091367;28;20424;-61
2022/08/07 02:54:08;;;;;;;1.60;0.83;;;;;;;26.14;38.62;100715.38;5090753;28;20640;-61
2022/08/07 02:56:34;;;;;;;3.77;1.57;;;;;;;26.14;38.58;100709.59;5090887;28;20171;-61
2022/08/07 02:59:01;;;;;;;1.80;0.73;;;;;;;26.13;38.15;100707.94;5089410;28;20646;-61
2022/08/07 03:01:26;;;;;;;2.63;1.10;;;;;;;26.14;38.34;100711.69;5090825;28;20199;-61
2022/08/07 03:03:52;;;;;;;2.30;1.00;;;;;;;26.12;38.39;100709.19;5089477;28;20429;-61
2022/08/07 03:06:18;;;;;;;1.90;1.03;;;;;;;26.12;38.09;100711.25;5090704;28;20167;-61
2022/08/07 03:08:43;;;;;;;2.83;0.90;;;;;;;26.12;38.38;100723.66;5091581;28;20178;-61
2022/08/07 03:11:09;;;;;;;1.80;0.90;;;;;;;26.12;38.60;100717.88;5072865;28;20588;-61
2022/08/07 03:13:34;;;;;;;3.10;0.93;;;;;;;26.11;38.39;100715.41;5091696;28;20626;-61
2022/08/07 03:15:59;;;;;;;1.70;0.83;;;;;;;26.12;38.14;100722.84;5091228;28;20265;-61
2022/08/07 03:18:25;;;;;;;3.70;1.20;;;;;;;26.10;38.12;100717.47;5090842;28;20171;-61
2022/08/07 03:20:51;;;;;;;2.17;0.93;;;;;;;26.10;38.23;100720.34;5088852;28;20289;-61
2022/08/07 03:23:16;;;;;;;2.73;0.97;;;;;;;26.10;38.20;100729.03;5089034;28;20303;-61
2022/08/07 03:25:42;;;;;;;1.70;0.60;;;;;;;26.10;38.03;100720.34;5088658;28;20163;-61
2022/08/07 03:28:11;;;;;;;1.80;0.80;;;;;;;26.10;38.36;100725.34;5088331;28;20189;-61
2022/08/07 03:30:37;;;;;;;3.63;0.93;;;;;;;26.08;38.46;100728.66;5089121;28;20182;-61
2022/08/07 03:33:02;;;;;;;2.80;1.10;;;;;;;26.08;38.15;100724.91;5090792;28;20891;-61
2022/08/07 03:35:28;;;;;;;2.00;1.10;;;;;;;26.08;38.01;100731.53;5089677;28;20641;-61
2022/08/07 03:38:00;;;;;;;3.03;1.10;;;;;;;26.08;38.43;100716.22;5089760;28;20344;-61
2022/08/07 03:40:26;;;;;;;1.90;0.90;;;;;;;26.07;37.92;100727.00;5073107;28;20191;-61
2022/08/07 03:42:51;;;;;;;2.27;1.00;;;;;;;26.06;38.10;100725.38;5087629;28;20791;-61
2022/08/07 03:45:23;;;;;;;3.43;1.07;;;;;;;26.07;37.97;100732.78;5073448;28;20178;-61
2022/08/07 03:47:50;;;;;;;2.43;0.93;;;;;;;26.07;38.44;100732.78;5091000;28;20196;-61
2022/08/07 03:50:16;;;;;;;1.97;1.20;;;;;;;26.06;38.39;100730.31;5091090;28;20754;-63
2022/08/07 03:52:41;;;;;;;1.80;0.80;;;;;;;26.05;38.46;100723.69;5089899;28;20462;-62
2022/08/07 03:55:07;;;;;;;2.97;0.93;;;;;;;26.04;38.27;100719.16;5089413;28;20436;-62
2022/08/07 03:57:33;;;;;;;4.57;0.90;;;;;;;26.04;38.03;100722.03;5091008;28;20178;-62
2022/08/07 03:59:58;;;;;;;2.47;0.90;;;;;;;26.04;38.28;100722.03;5089202;28;20269;-62
2022/08/07 04:02:24;;;;;;;3.50;1.30;;;;;;;26.04;38.18;100727.03;5090624;28;20420;-62
2022/08/07 04:04:49;;;;;;;2.47;1.10;;;;;;;26.03;38.54;100731.97;5090896;28;20178;-62
2022/08/07 04:07:17;;;;;;;2.10;1.27;;;;;;;26.03;38.36;100731.97;5091167;28;21047;-62
2022/08/07 04:09:44;;;;;;;2.20;0.90;;;;;;;26.02;38.47;100730.34;5083340;28;20163;-62
2022/08/07 04:12:09;;;;;;;3.47;1.33;;;;;;;26.03;38.08;100740.66;5069760;28;20552;-62
2022/08/07 04:14:35;;;;;;;2.47;1.00;;;;;;;26.02;38.13;100732.41;5080291;28;20491;-62
2022/08/07 04:17:00;;;;;;;3.83;1.00;;;;;;;26.01;38.21;100740.28;5089794;28;20232;-62
2022/08/07 04:19:26;;;;;;;2.60;0.90;;;;;;;26.02;38.20;100733.22;5089707;28;20194;-62
2022/08/07 04:21:51;;;;;;;2.00;1.00;;;;;;;25.99;38.06;100734.06;5088795;28;20575;-62
2022/08/07 04:24:17;;;;;;;2.90;1.13;;;;;;;26.00;38.53;100738.59;5069436;28;20179;-62
2022/08/07 04:26:42;;;;;;;2.37;1.07;;;;;;;26.00;38.73;100737.81;5089171;28;20235;-62
2022/08/07 04:29:11;;;;;;;2.10;0.93;;;;;;;25.99;38.34;100736.97;5090781;28;20167;-62
2022/08/07 04:31:38;;;;;;;2.73;1.30;;;;;;;25.99;38.47;100741.94;5090632;28;20839;-62
2022/08/07 04:34:03;;;;;;;4.70;1.20;;;;;;;25.97;38.16;100739.47;5090652;28;20459;-62
2022/08/07 04:36:28;;;;;;;4.33;1.00;;;;;;;25.98;38.76;100741.09;5089150;28;20418;-62
2022/08/07 04:38:54;;;;;;;2.53;1.10;;;;;;;25.96;38.16;100734.94;5089021;28;20165;-62
2022/08/07 04:41:19;;;;;;;3.80;1.20;;;;;;;25.97;38.49;100738.63;5088422;28;20221;-62
2022/08/07 04:43:45;;;;;;;2.93;1.03;;;;;;;25.97;38.39;100741.53;5089549;28;20174;-62
2022/08/07 04:46:14;;;;;;;3.50;1.10;;;;;;;25.97;38.42;100744.41;5071054;28;20174;-62
2022/08/07 04:49:04;;;;;;;3.60;0.90;;;;;;;25.95;38.44;100744.84;5088080;28;20548;-62
2022/08/07 04:52:08;;;;;;;2.27;0.87;;;;;;;25.95;38.08;100750.63;5087908;28;20431;-62
2022/08/07 04:55:18;;;;;;;3.07;1.37;;;;;;;25.94;38.36;100748.16;5008139;28;20474;-62
2022/08/07 04:57:54;;;;;;;2.83;1.30;;;;;;;25.94;38.68;100753.97;4988804;28;20416;-62
2022/08/07 05:00:36;;;;;;;1.70;0.90;;;;;;;25.94;38.22;100751.88;5093511;28;20491;-62
2022/08/07 05:03:14;;;;;;;4.00;1.10;;;;;;;25.94;38.50;100751.06;5094138;28;20408;-62
2022/08/07 05:05:43;;;;;;;3.97;1.00;;;;;;;25.93;38.28;100758.91;5092858;28;20420;-62
2022/08/07 05:08:21;;;;;;;5.53;1.10;;;;;;;25.93;38.47;100761.81;5092202;28;20413;-62
2022/08/07 05:10:59;;;;;;;4.60;1.17;;;;;;;25.94;38.28;100759.75;5092133;28;20550;-62
2022/08/07 05:13:27;;;;;;;2.70;1.17;;;;;;;25.94;38.67;100754.75;5092555;28;20424;-62
2022/08/07 05:15:52;;;;;;;2.63;1.40;;;;;;;25.93;38.33;100761.81;5093592;28;20432;-62
2022/08/07 05:18:23;;;;;;;3.67;1.13;;;;;;;25.94;38.54;100751.06;5092214;28;20420;-62
2022/08/07 05:20:50;;;;;;;4.80;1.23;;;;;;;25.93;38.33;100755.19;5093276;28;20206;-62
2022/08/07 05:23:20;;;;;;;3.90;0.90;;;;;;;25.92;38.27;100747.75;5091567;28;20423;-62
2022/08/07 05:25:45;;;;;;;3.23;1.20;;;;;;;25.93;38.16;100756.00;5091221;28;20419;-62
2022/08/07 05:28:11;;;;;;;1.90;1.03;;;;;;;25.92;38.13;100754.38;5091308;28;20404;-62
2022/08/07 05:30:36;;;;;;;5.40;0.90;;;;;;;25.93;38.30;100764.69;5074480;28;20178;-62
2022/08/07 05:33:03;;;;;;;3.50;1.17;;;;;;;25.92;38.54;100765.94;5092346;28;20193;-62
2022/08/07 05:35:28;;;;;;;2.20;0.93;;;;;;;25.92;39.00;100765.09;5074625;28;20190;-62
2022/08/07 05:37:54;;;;;;;1.73;0.80;;;;;;;25.91;38.57;100767.19;5091624;28;20898;-62
2022/08/07 05:40:19;;;;;;;5.10;1.53;;;;;;;25.91;38.15;100763.44;5074660;28;20191;-61
2022/08/07 05:42:45;;;;;;;1.50;0.80;;;;;;;25.91;38.02;100770.09;5071440;28;20565;-61
2022/08/07 05:45:10;;;;;;;5.00;0.97;;;;;;;25.90;38.40;100771.28;5056277;28;20537;-61
2022/08/07 05:47:35;;;;;;;5.83;1.00;;;;;;;25.91;38.48;100780.78;5092654;28;20620;-61
2022/08/07 05:50:01;;;;;;;2.03;1.00;;;;;;;25.89;38.45;100778.31;5091849;28;20166;-61
2022/08/07 05:52:26;;;;;;;8.27;1.13;;;;;;;25.90;38.37;100785.75;5093042;28;20182;-61
2022/08/07 05:54:52;;;;;;;2.77;1.20;;;;;;;25.90;38.75;100782.03;5092956;28;20179;-61
2022/08/07 05:57:17;;;;;;;2.60;1.07;;;;;;;25.88;38.58;100782.47;5092736;28;20173;-61
2022/08/07 05:59:43;;;;;;;2.00;1.00;;;;;;;25.89;38.69;100784.09;5091634;28;20195;-61
2022/08/07 06:02:08;;;;;;;2.60;1.10;;;;;;;25.89;38.70;100787.00;5092509;28;20170;-61
2022/08/07 06:04:36;;;;;;;3.03;1.00;;;;;;;25.90;38.70;100787.84;5091114;28;20179;-61
2022/08/07 06:07:04;;;;;;;5.70;1.27;;;;;;;25.89;38.88;100795.69;5087101;28;20175;-61
2022/08/07 06:09:33;;;;;;;2.10;1.00;;;;;;;25.90;38.74;100802.31;5070229;28;20425;-61
2022/08/07 06:11:58;;;;;;;3.80;1.30;;;;;;;25.88;38.72;100794.03;5087542;28;20500;-61
2022/08/07 06:14:24;;;;;;;3.40;1.00;;;;;;;25.89;38.59;100801.47;5084527;28;20405;-61
2022/08/07 06:16:49;;;;;;;2.17;1.00;;;;;;;25.88;38.63;100802.72;5070929;28;20261;-61
2022/08/07 06:19:15;;;;;;;2.53;1.20;;;;;;;25.88;38.71;100804.75;5053390;28;20171;-61
2022/08/07 06:21:42;;;;;;;1.80;0.80;;;;;;;25.88;38.36;100805.59;5071389;28;20315;-62
2022/08/07 06:24:07;;;;;;;2.17;0.80;;;;;;;25.88;38.91;100805.59;5079398;28;20441;-61
2022/08/07 06:26:33;;;;;;;2.30;0.97;;;;;;;25.89;38.47;100804.34;5071948;28;20452;-61
2022/08/07 06:28:59;;;;;;;2.30;1.00;;;;;;;25.89;38.62;100806.44;5076800;28;20178;-61
2022/08/07 06:31:24;;;;;;;2.17;0.97;;;;;;;25.89;38.86;100806.44;5091854;28;20265;-61
2022/08/07 06:33:50;;;;;;;2.80;1.07;;;;;;;25.88;38.74;100808.50;5091069;28;20191;-62
2022/08/07 06:36:15;;;;;;;3.10;1.00;;;;;;;25.87;38.65;100800.22;5090910;28;20174;-62
2022/08/07 06:38:41;;;;;;;1.97;1.03;;;;;;;25.88;38.80;100805.59;5092110;28;20194;-60
2022/08/07 06:41:10;;;;;;;4.03;1.00;;;;;;;25.87;38.57;100803.97;5077097;28;20730;-60
2022/08/07 06:43:36;;;;;;;2.70;1.20;;;;;;;25.86;38.40;100801.47;5071474;28;20464;-60
2022/08/07 06:46:02;;;;;;;2.07;1.00;;;;;;;25.88;38.64;100804.75;5078567;28;20412;-60
2022/08/07 06:48:27;;;;;;;2.57;1.10;;;;;;;25.87;38.98;100809.75;5090830;28;20178;-60
2022/08/07 06:50:53;;;;;;;2.57;0.90;;;;;;;25.88;38.48;100801.88;5091868;28;20431;-61
2022/08/07 06:53:20;;;;;;;2.10;1.10;;;;;;;25.86;39.07;100796.53;5077468;28;20191;-61
2022/08/07 06:55:45;;;;;;;2.07;0.93;;;;;;;25.86;38.68;100795.69;5053813;28;20796;-61
2022/08/07 06:58:11;;;;;;;3.07;1.13;;;;;;;25.86;38.84;100796.53;5053664;28;20425;-61
2022/08/07 07:00:38;;;;;;;3.70;1.10;;;;;;;25.86;38.90;100795.69;5036587;28;20218;-61
2022/08/07 07:03:03;;;;;;;3.13;1.00;;;;;;;25.87;39.44;100803.97;5069984;28;20202;-61
2022/08/07 07:05:29;;;;;;;4.40;0.97;;;;;;;25.87;39.13;100803.13;5089754;28;20479;-62
2022/08/07 07:07:54;;;;;;;3.20;1.00;;;;;;;25.85;38.86;100791.16;5091548;28;20178;-61
2022/08/07 07:10:27;;;;;;;2.03;0.97;;;;;;;25.86;39.08;100802.31;5091015;28;20284;-61
2022/08/07 07:12:54;;;;;;;3.53;1.00;;;;;;;25.86;38.74;100798.59;5091604;28;20174;-61
2022/08/07 07:15:22;;;;;;;2.47;0.80;;;;;;;25.87;38.80;100798.19;5090162;28;20965;-61
2022/08/07 07:18:09;;;;;;;2.17;0.93;;;;;;;25.86;39.04;100799.44;5072361;28;20421;-61
2022/08/07 07:20:50;;;;;;;1.63;0.73;;;;;;;25.86;39.18;100802.31;5089845;28;20538;-61
2022/08/07 07:23:15;;;;;;;3.40;0.90;;;;;;;25.86;39.08;100796.53;5091327;28;20499;-61
2022/08/07 07:25:40;;;;;;;3.50;1.10;;;;;;;25.86;38.68;100795.69;5091547;28;20446;-61
2022/08/07 07:28:19;;;;;;;1.90;0.90;;;;;;;25.87;38.89;100798.19;5072797;28;20775;-61
2022/08/07 07:30:48;;;;;;;1.73;0.83;;;;;;;25.86;39.17;100801.47;5091335;28;20645;-61
2022/08/07 07:33:14;;;;;;;3.60;1.30;;;;;;;25.86;39.08;100796.53;5091115;28;20451;-61
2022/08/07 07:35:44;;;;;;;2.00;1.10;;;;;;;25.86;39.29;100793.63;5089712;28;20420;-61
2022/08/07 07:38:10;;;;;;;2.60;1.03;;;;;;;25.86;39.22;100795.69;5089999;28;20212;-61
2022/08/07 07:40:35;;;;;;;3.47;1.10;;;;;;;25.86;39.43;100784.97;5090859;28;20807;-61
2022/08/07 07:43:02;;;;;;;2.17;1.00;;;;;;;25.86;39.01;100779.19;5089771;28;20166;-61
2022/08/07 07:45:27;;;;;;;3.10;1.10;;;;;;;25.86;39.27;100796.53;5089475;28;20176;-61
2022/08/07 07:47:53;;;;;;;2.80;1.30;;;;;;;25.87;39.55;100783.72;5071545;28;20511;-61
2022/08/07 07:50:20;;;;;;;2.47;1.20;;;;;;;25.86;39.10;100792.81;5089920;28;20171;-61
2022/08/07 07:52:45;;;;;;;4.43;1.20;;;;;;;25.86;39.29;100787.84;5090817;28;20178;-61
2022/08/07 07:55:11;;;;;;;2.57;1.10;;;;;;;25.87;39.53;100782.88;5090189;28;20745;-61
2022/08/07 07:57:36;;;;;;;3.57;1.20;;;;;;;25.88;39.26;100793.19;5089794;28;20220;-61
2022/08/07 08:00:02;;;;;;;2.30;1.03;;;;;;;25.87;39.50;100792.38;5089711;28;20512;-61
2022/08/07 08:02:28;;;;;;;2.50;1.30;;;;;;;25.89;39.29;100783.28;5090455;28;20269;-61
2022/08/07 08:04:53;;;;;;;2.67;0.80;;;;;;;25.88;40.01;100787.41;5088646;28;20503;-61
2022/08/07 08:07:19;;;;;;;1.90;1.03;;;;;;;25.89;39.51;100786.19;5068676;28;20175;-61
2022/08/07 08:09:46;;;;;;;6.23;1.30;;;;;;;25.89;39.31;100777.50;5090591;28;20178;-61
2022/08/07 08:12:11;;;;;;;3.50;1.27;;;;;;;25.87;39.69;100775.03;5091021;28;20210;-61
2022/08/07 08:14:38;;;;;;;4.37;0.90;;;;;;;25.88;39.80;100776.66;5088939;28;20774;-61
2022/08/07 08:17:06;;;;;;;1.90;1.10;;;;;;;25.89;40.08;100771.72;5091138;28;20182;-61
2022/08/07 08:19:31;;;;;;;3.37;1.13;;;;;;;25.88;39.85;100773.78;5072934;28;20475;-61
2022/08/07 08:27:28;;;;;;;3.90;1.10;;;;;;;25.89;39.78;100760.94;5054740;28;20408;-61
2022/08/07 08:30:03;;;;;;;2.27;1.17;;;;;;;25.89;39.91;100760.16;5057338;28;20420;-61
2022/08/07 08:32:30;;;;;;;2.80;1.20;;;;;;;25.86;39.95;100761.81;5072865;28;20425;-61
2022/08/07 08:34:56;;;;;;;3.33;1.47;;;;;;;25.88;40.22;100752.69;5085730;28;20435;-61
2022/08/07 08:37:21;;;;;;;2.17;1.00;;;;;;;25.88;40.14;100753.53;5093466;28;20420;-61
2022/08/07 08:39:48;;;;;;;3.57;1.27;;;;;;;25.89;40.14;100743.59;5093503;28;20463;-61
2022/08/07 08:42:26;;;;;;;2.43;1.13;;;;;;;25.89;40.38;100749.38;5076378;28;20186;-61
2022/08/07 08:44:56;;;;;;;2.83;0.90;;;;;;;25.90;39.98;100742.34;5092965;28;20424;-61
2022/08/07 08:47:25;;;;;;;1.93;1.00;;;;;;;25.90;39.90;100742.34;5094012;28;20478;-61
2022/08/07 08:50:12;;;;;;;2.47;1.10;;;;;;;25.90;40.05;100738.66;5091595;28;20422;-61
2022/08/07 08:52:44;;;;;;;3.70;1.30;;;;;;;25.89;40.92;100739.91;5091948;28;20911;-61
2022/08/07 08:55:18;;;;;;;3.07;1.40;;;;;;;25.90;40.63;100741.53;5092986;28;20428;-61
2022/08/07 08:57:48;;;;;;;3.27;1.10;;;;;;;25.90;40.05;100738.66;5091568;28;20959;-61
2022/08/07 09:00:13;;;;;;;2.80;1.30;;;;;;;25.90;40.22;100733.66;5092076;28;20696;-61
2022/08/07 09:02:59;;;;;;;4.20;1.70;;;;;;;25.91;40.34;100740.28;5075531;28;20477;-61
2022/08/07 09:05:38;;;;;;;2.47;1.20;;;;;;;25.91;40.63;100741.16;5075624;28;20174;-61
2022/08/07 09:08:08;;;;;;;8.83;1.80;;;;;;;25.91;40.73;100738.25;5093890;28;20792;-61
2022/08/07 09:10:43;;;;;;;3.50;1.60;;;;;;;25.89;40.68;100731.22;5092368;28;20543;-61
2022/08/07 09:13:17;;;;;;;2.40;1.20;;;;;;;25.89;40.96;100734.09;5092039;28;20493;-61
2022/08/07 09:15:59;;;;;;;2.30;1.30;;;;;;;25.90;40.82;100741.53;5093612;28;20513;-61
2022/08/07 09:18:40;;;;;;;2.00;1.30;;;;;;;25.91;41.13;100738.25;5092399;28;20507;-61
2022/08/07 09:21:30;;;;;;;3.27;1.50;;;;;;;25.93;40.58;100740.72;5093600;28;20459;-61
2022/08/07 09:24:07;;;;;;;3.90;1.50;;;;;;;25.91;40.89;100735.38;5093537;28;20424;-61
2022/08/07 09:27:12;;;;;;;2.50;1.20;;;;;;;25.92;40.99;100736.19;5092880;28;20450;-61
2022/08/07 09:29:55;;;;;;;2.90;1.43;;;;;;;25.91;41.16;100729.59;5068760;28;20465;-61
2022/08/07 09:32:47;;;;;;;2.23;1.30;;;;;;;25.91;40.96;100723.78;5071982;28;20508;-61
2022/08/07 09:35:32;;;;;;;4.13;1.50;;;;;;;25.93;41.44;100732.03;5088017;28;20435;-61
2022/08/07 09:38:06;;;;;;;3.03;1.20;;;;;;;25.93;41.64;100720.44;5092015;28;21139;-61
2022/08/07 09:41:06;;;;;;;3.27;1.40;;;;;;;25.92;41.21;100722.53;5090410;28;20542;-61
2022/08/07 09:43:59;;;;;;;2.70;1.30;;;;;;;25.94;41.37;100722.13;5040286;28;20451;-61
2022/08/07 09:47:06;;;;;;;3.60;1.33;;;;;;;25.95;41.36;100713.00;5092148;28;20424;-61
2022/08/07 09:49:50;;;;;;;2.43;1.10;;;;;;;25.96;41.14;100710.94;5026401;28;20432;-61
2022/08/07 09:52:19;;;;;;;2.70;1.40;;;;;;;25.95;41.56;100713.00;5092838;28;20903;-61
2022/08/07 09:54:53;;;;;;;3.83;1.43;;;;;;;25.94;41.04;100717.16;5089681;28;20421;-61
2022/08/07 09:57:44;;;;;;;3.90;1.73;;;;;;;25.97;41.36;100707.63;5072697;28;20516;-61
2022/08/07 10:00:10;;;;;;;4.70;1.47;;;;;;;25.94;41.69;100702.69;5080721;28;20452;-62
2022/08/07 10:03:07;;;;;;;3.03;1.10;;;;;;;25.94;41.54;100704.75;5091431;28;20420;-62
2022/08/07 10:05:42;;;;;;;2.20;1.10;;;;;;;25.93;41.33;100686.56;5090569;28;20409;-62
2022/08/07 10:08:16;;;;;;;3.80;1.30;;;;;;;25.93;41.53;100686.56;5091092;28;20439;-60
2022/08/07 10:10:51;;;;;;;2.77;1.50;;;;;;;25.96;41.51;100679.13;5091571;28;21033;-60
2022/08/07 10:13:26;;;;;;;2.10;1.20;;;;;;;25.96;41.71;100679.94;5078801;28;20463;-62
2022/08/07 10:16:11;;;;;;;2.83;1.60;;;;;;;25.96;41.61;100674.16;5070760;28;20440;-62
2022/08/07 10:19:14;;;;;;;4.10;1.63;;;;;;;25.97;41.77;100669.19;5084871;28;20416;-62
2022/08/07 10:21:58;;;;;;;2.57;1.40;;;;;;;25.97;41.07;100664.22;5090793;28;20468;-62
2022/08/07 10:25:00;;;;;;;2.33;1.27;;;;;;;25.97;41.64;100654.72;5083664;28;20425;-62
2022/08/07 10:27:58;;;;;;;3.67;1.63;;;;;;;25.98;41.68;100660.06;5071661;28;20413;-62
2022/08/07 10:30:29;;;;;;;3.43;1.43;;;;;;;25.97;41.51;100651.81;5053111;28;20433;-62
2022/08/07 10:33:22;;;;;;;2.67;1.40;;;;;;;25.99;41.20;100644.34;5070665;28;20428;-62
2022/08/07 10:36:15;;;;;;;3.47;1.60;;;;;;;26.01;41.47;100644.78;5054672;28;20417;-63
2022/08/07 10:39:04;;;;;;;2.53;1.33;;;;;;;26.02;41.66;100637.75;5071856;28;20403;-62
2022/08/07 10:41:39;;;;;;;2.43;1.37;;;;;;;26.00;40.85;100631.53;5069222;28;20472;-62
2022/08/07 10:44:30;;;;;;;4.63;1.50;;;;;;;26.02;40.79;100629.06;5069013;28;20523;-62
2022/08/07 10:47:05;;;;;;;2.00;1.20;;;;;;;26.04;40.03;100631.53;5085121;28;20432;-62
2022/08/07 10:49:39;;;;;;;2.23;1.53;;;;;;;26.03;40.43;100616.22;5057476;28;20895;-62
2022/08/07 10:52:23;;;;;;;4.23;1.40;;;;;;;26.05;39.14;100622.41;5052783;28;20855;-62
2022/08/07 10:55:16;;;;;;;3.07;1.43;;;;;;;26.07;38.58;100619.09;5070739;28;20410;-62
2022/08/07 10:57:43;;;;;;;2.43;1.50;;;;;;;26.07;38.57;100617.03;5065092;28;20440;-62
2022/08/07 11:00:14;;;;;;;2.00;1.23;;;;;;;26.08;39.59;100609.97;5069795;28;20457;-62
2022/08/07 11:03:08;;;;;;;1.77;0.93;;;;;;;26.08;39.95;100612.88;5069928;28;20421;-62
2022/08/07 11:05:43;;;;;;;3.33;1.60;;;;;;;26.09;38.65;100611.63;5062386;28;20530;-62
2022/08/07 11:08:14;;;;;;;4.73;1.50;;;;;;;26.10;38.68;100615.34;5071306;28;20497;-62
2022/08/07 11:10:42;;;;;;;3.90;1.90;;;;;;;26.10;40.32;100604.59;5069810;28;21127;-62
2022/08/07 11:13:18;;;;;;;2.57;1.40;;;;;;;26.10;39.23;100609.56;5071514;28;20439;-62
2022/08/07 11:15:45;;;;;;;3.20;1.50;;;;;;;26.12;37.34;100607.88;5085912;28;20704;-62
2022/08/07 11:18:24;;;;;;;5.53;1.40;;;;;;;26.12;39.11;100613.69;5090049;28;20430;-62
2022/08/07 11:20:58;;;;;;;2.03;1.10;;;;;;;26.11;38.25;100605.41;5089590;28;20460;-62
2022/08/07 11:23:29;;;;;;;3.03;1.23;;;;;;;26.14;38.66;100595.91;5089882;28;20756;-62
2022/08/07 11:26:11;;;;;;;3.17;1.53;;;;;;;26.14;38.31;100598.78;5073867;28;20424;-62
2022/08/07 11:29:05;;;;;;;4.20;1.40;;;;;;;26.13;38.92;100606.63;5073655;28;20448;-60
2022/08/07 11:31:36;;;;;;;3.00;1.70;;;;;;;26.14;38.18;100595.91;5089786;28;20424;-61
2022/08/07 11:34:14;;;;;;;3.83;1.30;;;;;;;26.16;38.32;100584.69;5083649;28;20425;-61
2022/08/07 11:36:42;;;;;;;1.70;1.10;;;;;;;26.16;38.36;100584.69;5054039;28;20471;-61
2022/08/07 11:39:24;;;;;;;2.83;1.30;;;;;;;26.14;39.17;100582.22;5070731;28;20782;-61
2022/08/07 11:42:02;;;;;;;2.57;1.60;;;;;;;26.13;38.89;100574.81;5069566;28;20497;-62
2022/08/07 11:44:41;;;;;;;4.37;1.70;;;;;;;26.18;37.48;100582.19;5053375;28;20507;-62